Time;durP1;ratioP1;P1;durP2;ratioP2;P2;SDS_P1;SDS_P2;PMS_P1;PMS_P2;Temp;Humidity;BMP_temperature;BMP_pressure;BME280_temperature;BME280_humidity;BME280_pressure;Samples;Min_cycle;Max_cycle;Signal;HPM_P1;HPM_P2
2022/06/21 00:00:48;;;;;;;5.23;4.73;;;14.90;99.90;;;;;;5011125;28;20264;-78
2022/06/21 00:03:19;;;;;;;4.37;3.93;;;14.70;99.90;;;;;;5011929;28;20271;-74
2022/06/21 00:05:49;;;;;;;4.53;4.03;;;14.50;99.90;;;;;;5013090;28;20263;-74
2022/06/21 00:08:24;;;;;;;3.90;3.43;;;14.60;99.90;;;;;;5011755;28;20244;-75
2022/06/21 00:10:51;;;;;;;4.17;3.50;;;14.40;99.90;;;;;;5010625;28;20208;-74
2022/06/21 00:13:32;;;;;;;7.37;3.37;;;14.40;99.90;;;;;;5010539;28;20747;-75
2022/06/21 00:16:06;;;;;;;4.40;3.17;;;14.30;99.90;;;;;;5014351;28;20194;-80
2022/06/21 00:18:36;;;;;;;4.40;2.90;;;14.10;99.90;;;;;;5022994;28;20200;-78
2022/06/21 00:21:14;;;;;;;3.40;2.70;;;14.10;99.90;;;;;;5013261;28;20250;-77
2022/06/21 00:23:42;;;;;;;4.30;2.97;;;14.10;99.90;;;;;;5027718;28;20203;-81
2022/06/21 00:26:12;;;;;;;2.60;2.40;;;14.10;99.90;;;;;;5015682;28;20228;-73
2022/06/21 00:28:40;;;;;;;5.37;4.17;;;14.00;99.90;;;;;;4982600;28;20200;-81
2022/06/21 00:31:17;;;;;;;4.37;2.67;;;14.00;99.90;;;;;;4998241;28;20197;-73
2022/06/21 00:33:45;;;;;;;2.60;2.40;;;13.90;99.90;;;;;;5014433;28;20199;-73
2022/06/21 00:36:34;;;;;;;3.13;2.40;;;13.90;99.90;;;;;;5014234;28;20637;-72
2022/06/21 00:39:03;;;;;;;4.80;2.40;;;13.90;99.90;;;;;;4997821;28;20290;-73
2022/06/21 00:41:52;;;;;;;4.57;2.83;;;13.90;99.90;;;;;;5014262;28;20310;-73
2022/06/21 00:44:31;;;;;;;5.10;3.77;;;14.00;99.90;;;;;;5014083;28;20648;-79
2022/06/21 00:47:04;;;;;;;5.20;4.30;;;14.00;99.90;;;;;;5014187;28;20652;-82
2022/06/21 00:49:39;;;;;;;5.57;4.70;;;13.90;99.90;;;;;;5014606;28;20204;-74
2022/06/21 00:52:16;;;;;;;5.63;5.13;;;13.90;99.90;;;;;;5015490;28;20256;-73
2022/06/21 00:55:05;;;;;;;6.47;5.80;;;13.90;99.90;;;;;;5014012;28;20619;-74
2022/06/21 00:57:55;;;;;;;9.43;6.07;;;13.80;99.90;;;;;;5014180;28;20303;-73
2022/06/21 01:00:33;;;;;;;6.40;4.80;;;13.70;99.90;;;;;;4939151;29;20638;-83
2022/06/21 01:03:29;;;;;;;5.10;4.50;;;13.60;99.90;;;;;;4938676;29;20197;-77
2022/06/21 01:06:00;;;;;;;7.17;4.40;;;13.60;99.90;;;;;;4938508;29;20700;-79
2022/06/21 01:08:34;;;;;;;6.00;3.80;;;13.60;99.90;;;;;;4938808;29;20263;-82
2022/06/21 01:11:08;;;;;;;4.90;3.70;;;13.60;99.90;;;;;;4937762;28;20221;-73
2022/06/21 01:13:40;;;;;;;4.87;3.57;;;13.70;99.90;;;;;;4954631;29;20207;-78
2022/06/21 01:16:08;;;;;;;5.03;3.67;;;13.70;99.90;;;;;;4954497;29;20686;-73
2022/06/21 01:18:36;;;;;;;5.20;3.50;;;13.60;99.90;;;;;;4938683;29;20239;-82
2022/06/21 01:21:03;;;;;;;7.10;4.53;;;13.60;99.90;;;;;;4938533;29;20212;-72
2022/06/21 01:23:42;;;;;;;5.60;4.10;;;13.40;99.90;;;;;;4938373;29;20645;-73
2022/06/21 01:26:32;;;;;;;6.17;4.63;;;13.40;99.90;;;;;;4954176;29;20201;-73
2022/06/21 01:29:00;;;;;;;6.70;5.00;;;13.30;99.90;;;;;;4938603;29;20301;-81
2022/06/21 01:31:29;;;;;;;6.97;4.40;;;13.30;99.90;;;;;;4938082;29;20230;-73
2022/06/21 01:33:56;;;;;;;9.57;4.37;;;13.40;99.90;;;;;;4937384;29;20295;-74
2022/06/21 01:36:28;;;;;;;6.00;4.60;;;13.30;99.90;;;;;;4942378;28;20263;-79
2022/06/21 01:39:05;;;;;;;7.37;4.90;;;13.40;99.90;;;;;;5014424;28;20189;-73
2022/06/21 01:41:44;;;;;;;6.10;4.40;;;13.40;99.90;;;;;;5013373;28;20196;-73
2022/06/21 01:44:16;;;;;;;6.00;4.43;;;13.30;99.90;;;;;;5014803;28;20220;-76
2022/06/21 01:46:43;;;;;;;7.27;4.80;;;13.30;99.90;;;;;;5014030;28;20688;-76
2022/06/21 01:49:16;;;;;;;7.07;4.97;;;13.30;99.90;;;;;;5014681;28;20180;-76
2022/06/21 01:51:49;;;;;;;8.03;5.20;;;13.20;99.90;;;;;;5012933;28;20217;-78
2022/06/21 01:54:19;;;;;;;7.87;4.97;;;13.30;99.90;;;;;;5013270;28;20387;-74
2022/06/21 01:56:48;;;;;;;8.07;4.93;;;13.20;99.90;;;;;;5013196;28;20291;-80
2022/06/21 01:59:23;;;;;;;5.90;4.70;;;13.20;99.90;;;;;;5012724;28;20208;-79
2022/06/21 02:01:59;;;;;;;7.50;4.87;;;13.00;99.90;;;;;;5014325;28;20379;-81
2022/06/21 02:04:29;;;;;;;7.47;4.77;;;12.90;99.90;;;;;;5012481;28;20235;-73
2022/06/21 02:07:01;;;;;;;6.77;4.37;;;13.00;99.90;;;;;;5012369;28;20567;-75
2022/06/21 02:09:37;;;;;;;5.77;4.50;;;12.90;99.90;;;;;;5012981;28;20227;-72
2022/06/21 02:12:09;;;;;;;7.40;4.53;;;13.00;99.90;;;;;;5012798;28;20319;-73
2022/06/21 02:14:50;;;;;;;8.13;4.40;;;12.90;99.90;;;;;;5014568;28;20641;-71
2022/06/21 02:17:27;;;;;;;10.37;5.40;;;12.80;99.90;;;;;;5014292;28;20728;-74
2022/06/21 02:20:02;;;;;;;6.67;4.50;;;12.70;99.90;;;;;;5014369;28;20579;-81
2022/06/21 02:22:31;;;;;;;7.70;4.70;;;12.70;99.90;;;;;;5014532;28;20196;-73
2022/06/21 02:24:58;;;;;;;9.03;4.67;;;12.50;99.90;;;;;;5013302;28;20271;-72
2022/06/21 02:27:30;;;;;;;7.70;4.93;;;12.60;99.90;;;;;;5013359;28;20215;-73
2022/06/21 02:30:00;;;;;;;9.23;4.77;;;12.50;99.90;;;;;;5012537;28;20200;-74
2022/06/21 02:32:35;;;;;;;6.83;4.90;;;12.50;99.90;;;;;;5012220;28;20265;-77
2022/06/21 02:35:35;;;;;;;6.60;4.50;;;12.50;99.90;;;;;;5012137;28;20278;-75
2022/06/21 02:38:06;;;;;;;6.30;4.50;;;12.50;99.90;;;;;;4952825;29;20381;-73
2022/06/21 02:40:44;;;;;;;9.03;4.57;;;12.50;99.90;;;;;;4936591;28;20210;-80
2022/06/21 02:43:18;;;;;;;6.67;4.90;;;12.60;99.90;;;;;;4937093;29;20565;-80
2022/06/21 02:45:51;;;;;;;6.97;5.00;;;12.60;99.90;;;;;;4952061;28;20229;-77
2022/06/21 02:48:24;;;;;;;8.73;5.30;;;12.80;99.90;;;;;;4936576;29;20236;-73
2022/06/21 02:51:02;;;;;;;9.07;4.97;;;12.70;99.90;;;;;;4936830;29;20238;-81
2022/06/21 02:53:33;;;;;;;9.23;5.30;;;12.80;99.90;;;;;;4936770;29;20202;-82
2022/06/21 02:56:29;;;;;;;8.43;5.60;;;12.80;99.90;;;;;;4936773;29;20230;-72
2022/06/21 02:59:01;;;;;;;8.20;5.67;;;12.80;99.90;;;;;;4876860;29;20228;-75
2022/06/21 03:01:39;;;;;;;8.47;5.43;;;12.90;99.90;;;;;;4877289;29;20234;-82
2022/06/21 03:04:07;;;;;;;8.57;5.63;;;12.90;99.90;;;;;;4862031;29;20212;-81
2022/06/21 03:06:34;;;;;;;9.80;5.43;;;12.90;99.90;;;;;;4868051;29;20209;-81
2022/06/21 03:09:08;;;;;;;7.03;5.20;;;12.90;99.90;;;;;;4863087;29;20371;-75
2022/06/21 03:11:42;;;;;;;10.20;6.77;;;12.90;99.90;;;;;;4875999;29;20240;-74
2022/06/21 03:14:15;;;;;;;10.03;6.30;;;12.80;99.90;;;;;;4875588;29;20212;-74
2022/06/21 03:16:44;;;;;;;8.70;6.27;;;12.70;99.90;;;;;;4936149;29;20235;-73
2022/06/21 03:19:26;;;;;;;8.70;6.20;;;12.80;99.90;;;;;;4952836;28;20289;-80
2022/06/21 03:21:55;;;;;;;7.97;6.03;;;12.80;99.90;;;;;;4936249;28;20312;-71
2022/06/21 03:24:24;;;;;;;11.87;6.63;;;12.80;99.90;;;;;;4935901;29;20210;-72
2022/06/21 03:27:07;;;;;;;9.87;6.50;;;12.80;99.90;;;;;;4936100;29;20241;-73
2022/06/21 03:29:34;;;;;;;8.43;6.57;;;12.90;99.90;;;;;;4935812;29;20707;-73
2022/06/21 03:32:03;;;;;;;12.67;6.93;;;12.80;99.90;;;;;;4952269;29;20755;-72
2022/06/21 03:34:33;;;;;;;9.83;6.40;;;12.80;99.90;;;;;;4935773;29;20210;-74
2022/06/21 03:37:00;;;;;;;9.83;7.00;;;12.80;99.90;;;;;;5004422;28;20713;-72
2022/06/21 03:42:18;;;;;;;10.33;6.47;;;12.90;99.90;;;;;;5010900;28;20228;-81
2022/06/21 03:45:12;;;;;;;9.13;5.87;;;13.00;99.90;;;;;;5010962;28;20291;-72
2022/06/21 03:47:47;;;;;;;7.57;5.80;;;13.10;99.90;;;;;;5011396;28;20224;-73
2022/06/21 03:50:27;;;;;;;7.67;6.30;;;13.10;99.90;;;;;;5011316;28;20202;-75
2022/06/21 03:53:18;;;;;;;10.30;6.40;;;12.90;99.90;;;;;;5010921;28;20224;-75
2022/06/21 03:55:48;;;;;;;9.67;6.07;;;12.80;99.90;;;;;;5013859;28;20219;-76
2022/06/21 03:58:40;;;;;;;9.87;6.40;;;12.80;99.90;;;;;;5021969;28;20191;-74
2022/06/21 04:01:30;;;;;;;8.97;6.20;;;12.90;99.90;;;;;;5017545;28;20619;-80
2022/06/21 04:04:11;;;;;;;10.50;6.10;;;12.90;99.90;;;;;;5017395;28;20192;-74
2022/06/21 04:06:49;;;;;;;9.93;5.63;;;12.90;99.90;;;;;;5016993;28;20203;-77
2022/06/21 04:09:50;;;;;;;10.07;5.77;;;13.00;99.90;;;;;;5017410;28;20202;-81
2022/06/21 04:12:27;;;;;;;10.60;5.80;;;13.10;99.90;;;;;;5029902;28;20262;-72
2022/06/21 04:15:05;;;;;;;7.60;5.27;;;13.10;99.90;;;;;;5021080;28;20614;-73
2022/06/21 04:17:45;;;;;;;11.13;5.20;;;13.20;99.90;;;;;;5034046;28;20225;-74
2022/06/21 04:20:40;;;;;;;10.73;5.17;;;13.30;99.90;;;;;;5021036;28;20191;-78
2022/06/21 04:23:09;;;;;;;8.90;4.97;;;13.40;99.90;;;;;;5020386;28;20627;-72
2022/06/21 04:25:45;;;;;;;8.63;4.97;;;13.40;99.90;;;;;;5020250;28;20191;-76
2022/06/21 04:28:24;;;;;;;7.90;4.60;;;13.40;99.90;;;;;;5020603;28;20279;-76
2022/06/21 04:30:57;;;;;;;6.90;5.00;;;13.30;99.90;;;;;;5020393;28;20241;-72
2022/06/21 04:33:31;;;;;;;9.10;4.97;;;13.30;99.90;;;;;;5020066;28;20207;-72
2022/06/21 04:36:42;;;;;;;8.93;5.37;;;13.30;99.90;;;;;;5038209;28;20684;-73
2022/06/21 04:39:21;;;;;;;8.33;5.40;;;13.30;99.90;;;;;;4957990;29;20294;-77
2022/06/21 04:42:08;;;;;;;7.37;4.83;;;13.30;99.90;;;;;;4940994;29;20225;-73
2022/06/21 04:45:06;;;;;;;8.87;5.40;;;13.40;99.90;;;;;;4941679;29;20249;-72
2022/06/21 04:48:00;;;;;;;8.47;5.07;;;13.40;99.90;;;;;;4941225;29;20202;-78
2022/06/21 04:50:34;;;;;;;6.77;4.80;;;13.30;99.90;;;;;;4941802;29;20296;-71
2022/06/21 04:53:20;;;;;;;7.63;5.10;;;13.30;99.90;;;;;;4941456;29;20198;-72
2022/06/21 04:56:16;;;;;;;7.90;5.00;;;13.30;99.90;;;;;;4957479;29;20222;-72
2022/06/21 04:58:48;;;;;;;7.97;5.37;;;13.30;99.90;;;;;;4939620;29;20301;-75
2022/06/21 05:01:30;;;;;;;6.13;4.77;;;13.40;99.90;;;;;;4941740;29;20297;-72
2022/06/21 05:04:33;;;;;;;18.03;5.43;;;13.40;99.90;;;;;;4957415;29;20249;-72
2022/06/21 05:07:04;;;;;;;8.50;5.23;;;13.60;99.90;;;;;;4940809;28;20221;-74
2022/06/21 05:09:33;;;;;;;7.03;5.07;;;13.70;99.90;;;;;;4922779;29;20204;-80
2022/06/21 05:12:04;;;;;;;7.47;5.20;;;13.80;99.90;;;;;;4938233;29;20254;-80
2022/06/21 05:14:36;;;;;;;9.33;4.93;;;13.70;99.90;;;;;;4984805;28;20231;-81
2022/06/21 05:17:09;;;;;;;5.10;4.37;;;13.70;99.90;;;;;;5016848;28;20649;-80
2022/06/21 05:19:42;;;;;;;6.97;4.70;;;13.50;99.90;;;;;;5016649;28;20292;-81
2022/06/21 05:22:34;;;;;;;15.83;5.53;;;13.60;99.90;;;;;;5016817;28;20655;-73
2022/06/21 05:25:03;;;;;;;10.80;5.13;;;13.70;99.90;;;;;;5034383;28;20208;-74
2022/06/21 05:27:47;;;;;;;8.30;4.90;;;13.80;99.90;;;;;;5034557;28;20305;-72
2022/06/21 05:30:41;;;;;;;8.80;4.70;;;13.80;99.90;;;;;;5034006;28;20235;-73
2022/06/21 05:33:20;;;;;;;5.83;4.40;;;13.80;99.90;;;;;;5034258;28;20241;-73
2022/06/21 05:35:48;;;;;;;6.40;4.70;;;13.90;99.90;;;;;;5016116;28;20576;-72
2022/06/21 05:38:27;;;;;;;6.30;4.77;;;13.80;99.90;;;;;;5016591;28;20199;-73
2022/06/21 05:41:00;;;;;;;9.70;5.30;;;13.70;99.90;;;;;;5016419;28;20208;-72
2022/06/21 05:43:45;;;;;;;8.07;5.10;;;13.60;99.90;;;;;;5016113;28;20654;-76
2022/06/21 05:46:22;;;;;;;6.50;4.67;;;13.70;99.90;;;;;;5000537;28;20230;-72
2022/06/21 05:48:55;;;;;;;7.47;5.20;;;13.70;99.90;;;;;;5016782;28;20203;-78
2022/06/21 05:51:31;;;;;;;8.20;5.77;;;13.50;99.90;;;;;;5016267;28;20213;-79
2022/06/21 05:54:12;;;;;;;10.07;6.60;;;13.30;99.90;;;;;;5016293;28;20237;-72
2022/06/21 05:56:40;;;;;;;8.47;6.40;;;13.20;99.90;;;;;;5034141;28;20269;-82
2022/06/21 05:59:19;;;;;;;11.00;6.90;;;13.00;99.90;;;;;;5016033;28;20187;-73
2022/06/21 06:02:08;;;;;;;8.33;6.63;;;12.90;99.90;;;;;;5016032;28;20209;-72
2022/06/21 06:04:52;;;;;;;9.83;5.97;;;13.00;99.90;;;;;;5016339;28;20188;-72
2022/06/21 06:07:27;;;;;;;7.57;5.70;;;13.10;99.90;;;;;;5006279;28;20646;-71
2022/06/21 06:09:56;;;;;;;9.13;5.90;;;13.30;99.90;;;;;;4980909;28;20216;-83
2022/06/21 06:12:28;;;;;;;8.70;5.33;;;13.40;99.90;;;;;;4977528;28;20256;-73
2022/06/21 06:15:07;;;;;;;7.10;5.10;;;13.60;99.90;;;;;;4976596;28;20295;-75
2022/06/21 06:17:57;;;;;;;6.37;4.90;;;13.70;99.90;;;;;;4976975;28;20192;-72
2022/06/21 06:20:27;;;;;;;7.60;5.20;;;13.70;99.90;;;;;;4980001;28;20224;-82
2022/06/21 06:22:59;;;;;;;7.27;5.27;;;13.50;99.90;;;;;;4976642;28;20635;-77
2022/06/21 06:25:43;;;;;;;6.57;5.40;;;13.30;99.90;;;;;;5012505;28;20283;-73
2022/06/21 06:28:26;;;;;;;5.83;4.37;;;13.20;99.90;;;;;;5014179;28;20271;-78
2022/06/21 06:31:15;;;;;;;5.23;4.43;;;12.80;99.90;;;;;;4997436;28;20288;-73
2022/06/21 06:33:52;;;;;;;6.77;5.10;;;12.70;99.90;;;;;;5013890;28;20675;-74
2022/06/21 06:36:24;;;;;;;9.43;4.83;;;12.70;99.90;;;;;;5013382;28;20285;-76
2022/06/21 06:38:54;;;;;;;5.47;4.37;;;12.80;99.90;;;;;;4995817;28;20626;-75
2022/06/21 06:41:36;;;;;;;6.27;4.80;;;13.00;99.90;;;;;;4995655;28;20625;-82
2022/06/21 06:44:09;;;;;;;5.43;4.17;;;13.20;99.90;;;;;;4995574;28;20606;-79
2022/06/21 06:46:42;;;;;;;5.20;3.70;;;13.40;99.90;;;;;;4995659;28;20238;-80
2022/06/21 06:49:33;;;;;;;5.63;3.60;;;13.60;99.90;;;;;;4995825;28;20223;-80
2022/06/21 06:52:12;;;;;;;4.83;2.73;;;13.40;99.90;;;;;;4995220;28;20650;-80
2022/06/21 06:54:55;;;;;;;3.57;2.90;;;13.20;99.90;;;;;;4995551;28;20192;-72
2022/06/21 06:57:41;;;;;;;3.50;2.70;;;13.20;99.90;;;;;;4995358;28;20302;-78
2022/06/21 07:00:28;;;;;;;4.77;2.57;;;13.00;99.90;;;;;;4995309;28;20279;-74
2022/06/21 07:03:05;;;;;;;3.73;2.30;;;13.10;99.90;;;;;;4995358;28;20296;-74
2022/06/21 07:05:53;;;;;;;6.63;2.83;;;13.30;99.90;;;;;;4995435;28;20203;-74
2022/06/21 07:08:38;;;;;;;3.33;2.50;;;13.30;99.90;;;;;;4995081;28;20311;-78
2022/06/21 07:11:23;;;;;;;3.53;2.43;;;13.50;99.90;;;;;;5012417;28;20681;-74
2022/06/21 07:13:58;;;;;;;3.63;2.10;;;13.50;99.90;;;;;;4994741;28;20240;-74
2022/06/21 07:16:26;;;;;;;2.47;2.23;;;13.60;99.90;;;;;;4995096;28;20238;-76
2022/06/21 07:18:56;;;;;;;5.30;2.50;;;13.60;99.90;;;;;;4995115;28;20664;-78
2022/06/21 07:21:26;;;;;;;4.23;2.47;;;13.60;99.90;;;;;;4995719;28;20243;-74
2022/06/21 07:23:57;;;;;;;6.03;2.33;;;13.30;99.90;;;;;;4994729;28;20196;-73
2022/06/21 07:26:32;;;;;;;4.00;2.53;;;13.40;99.90;;;;;;4995481;28;20664;-70
2022/06/21 07:29:09;;;;;;;3.73;2.43;;;13.40;99.90;;;;;;5012315;28;20242;-70
2022/06/21 07:31:48;;;;;;;5.27;2.40;;;13.50;99.90;;;;;;5012345;28;20534;-75
2022/06/21 07:34:37;;;;;;;3.53;2.63;;;13.60;99.90;;;;;;5012513;28;20250;-72
2022/06/21 07:37:17;;;;;;;3.53;2.90;;;13.50;99.90;;;;;;4994983;28;20324;-71
2022/06/21 07:39:49;;;;;;;2.80;2.47;;;13.00;99.90;;;;;;4979186;28;20524;-73
2022/06/21 07:42:54;;;;;;;3.37;2.50;;;12.90;99.90;;;;;;4995015;28;20238;-72
2022/06/21 07:45:35;;;;;;;3.67;2.83;;;12.80;99.90;;;;;;4951499;29;20759;-71
2022/06/21 07:48:11;;;;;;;4.17;3.00;;;12.70;99.90;;;;;;4952085;29;20202;-72
2022/06/21 07:50:45;;;;;;;4.50;3.27;;;12.70;99.90;;;;;;4935781;29;20588;-71
2022/06/21 07:53:29;;;;;;;5.90;3.33;;;12.40;99.90;;;;;;4935878;29;20676;-73
2022/06/21 07:56:04;;;;;;;5.47;3.30;;;12.50;99.90;;;;;;4952036;29;20284;-73
2022/06/21 07:59:00;;;;;;;5.63;3.23;;;12.60;99.90;;;;;;4951562;28;20240;-72
2022/06/21 08:07:46;;;;;;;5.63;3.23;;;12.80;99.90;;;;;;4951428;29;20202;-73
2022/06/21 08:10:34;;;;;;;5.80;3.70;;;13.10;99.90;;;;;;4951954;29;20691;-71
2022/06/21 08:13:01;;;;;;;4.93;3.13;;;13.20;99.90;;;;;;4935206;29;20860;-72
2022/06/21 08:15:37;;;;;;;6.03;3.00;;;13.30;99.90;;;;;;4951399;29;20203;-71
2022/06/21 08:18:22;;;;;;;4.43;2.77;;;13.50;99.90;;;;;;4935722;29;20244;-72
2022/06/21 08:20:57;;;;;;;4.93;2.90;;;13.60;99.90;;;;;;4941886;28;20209;-73
2022/06/21 08:23:37;;;;;;;4.23;2.90;;;13.80;99.90;;;;;;4994149;28;20203;-72
2022/06/21 08:26:31;;;;;;;5.47;2.77;;;13.90;99.90;;;;;;5011748;28;20188;-71
2022/06/21 08:29:10;;;;;;;3.27;2.77;;;14.00;99.90;;;;;;5008870;28;20232;-74
2022/06/21 08:31:41;;;;;;;6.97;3.00;;;14.10;99.90;;;;;;4994145;28;20279;-71
2022/06/21 08:34:10;;;;;;;5.00;3.20;;;14.00;99.90;;;;;;4994255;28;20603;-69
2022/06/21 08:36:43;;;;;;;7.13;3.20;;;13.50;99.90;;;;;;4993681;28;20224;-70
2022/06/21 08:39:25;;;;;;;4.73;3.13;;;13.00;99.90;;;;;;4994173;28;20646;-69
2022/06/21 08:42:01;;;;;;;4.90;3.50;;;12.60;99.90;;;;;;4994386;28;20232;-69
2022/06/21 08:45:40;;;;;;;5.00;3.63;;;12.30;99.90;;;;;;5014587;28;20605;-70
2022/06/21 08:48:19;;;;;;;4.80;3.10;;;12.20;99.90;;;;;;4997590;28;20234;-70
2022/06/21 08:51:04;;;;;;;5.37;3.77;;;12.00;99.90;;;;;;5015193;28;20711;-71
2022/06/21 08:53:37;;;;;;;5.53;3.80;;;12.10;99.90;;;;;;4997669;28;20633;-70
2022/06/21 08:56:04;;;;;;;5.93;3.73;;;12.30;99.90;;;;;;4997426;28;20703;-70
2022/06/21 08:58:43;;;;;;;6.50;3.80;;;12.60;99.90;;;;;;4997888;28;20235;-69
2022/06/21 09:01:20;;;;;;;4.73;3.57;;;12.90;99.90;;;;;;4997543;28;20199;-70
2022/06/21 09:04:15;;;;;;;5.33;3.20;;;13.10;99.90;;;;;;4997462;28;20207;-70
2022/06/21 09:06:51;;;;;;;3.83;3.00;;;13.20;99.90;;;;;;5015372;28;20962;-72
2022/06/21 09:09:42;;;;;;;3.20;2.90;;;13.10;99.90;;;;;;4997333;28;20192;-71
2022/06/21 09:12:30;;;;;;;5.63;2.87;;;12.90;99.90;;;;;;4996796;28;20324;-72
2022/06/21 09:15:30;;;;;;;4.13;2.67;;;12.90;99.90;;;;;;4997120;28;20668;-70
2022/06/21 09:18:08;;;;;;;4.47;3.00;;;12.80;99.90;;;;;;4997333;28;20208;-75
2022/06/21 09:20:41;;;;;;;4.33;2.67;;;12.80;99.90;;;;;;5000537;28;20231;-73
2022/06/21 09:23:57;;;;;;;4.27;3.00;;;12.90;99.90;;;;;;5014758;28;20225;-71
2022/06/21 09:26:36;;;;;;;4.17;3.33;;;13.20;99.90;;;;;;4919025;29;20651;-74
2022/06/21 09:29:10;;;;;;;4.83;2.90;;;13.50;99.90;;;;;;4919268;29;20209;-75
2022/06/21 09:32:03;;;;;;;4.20;2.40;;;14.10;99.90;;;;;;4934979;29;20202;-72
2022/06/21 09:34:51;;;;;;;4.90;2.67;;;14.30;99.90;;;;;;4919109;29;20207;-73
2022/06/21 09:37:36;;;;;;;3.47;1.80;;;15.00;99.90;;;;;;4934690;29;20613;-74
2022/06/21 09:40:27;;;;;;;3.87;1.90;;;15.70;99.90;;;;;;4934850;29;20191;-75
2022/06/21 09:43:17;;;;;;;3.07;1.80;;;15.70;99.90;;;;;;4918905;29;20214;-73
2022/06/21 09:46:05;;;;;;;3.87;1.97;;;15.50;99.90;;;;;;4918767;29;20647;-72
2022/06/21 09:48:48;;;;;;;4.43;1.87;;;15.30;99.90;;;;;;4918894;29;20211;-73
2022/06/21 09:51:55;;;;;;;2.87;1.63;;;15.10;99.90;;;;;;4934522;29;20209;-73
2022/06/21 09:54:33;;;;;;;3.67;1.63;;;14.80;99.90;;;;;;4934236;29;20250;-72
2022/06/21 09:57:02;;;;;;;5.77;2.10;;;14.30;99.90;;;;;;4918499;29;20735;-73
2022/06/21 09:59:35;;;;;;;5.80;2.33;;;13.50;99.90;;;;;;4934170;29;20330;-73
2022/06/21 10:02:27;;;;;;;4.07;2.10;;;13.10;99.90;;;;;;4973213;28;20299;-73
2022/06/21 10:04:57;;;;;;;5.77;2.70;;;12.80;99.90;;;;;;4996072;28;20236;-70
2022/06/21 10:07:48;;;;;;;4.70;2.53;;;12.80;99.90;;;;;;5013752;28;20275;-70
2022/06/21 10:10:40;;;;;;;4.60;2.67;;;12.90;99.90;;;;;;4996275;28;20223;-70
2022/06/21 10:14:07;;;;;;;7.50;3.40;;;13.10;99.90;;;;;;4995995;28;20323;-72
2022/06/21 10:16:52;;;;;;;4.23;2.93;;;13.30;99.90;;;;;;4918133;29;20219;-72
2022/06/21 10:19:23;;;;;;;3.07;2.77;;;13.60;99.90;;;;;;4918521;29;20297;-72
2022/06/21 10:22:13;;;;;;;4.93;2.70;;;14.10;99.90;;;;;;4934056;29;20657;-72
2022/06/21 10:24:54;;;;;;;4.43;2.50;;;14.60;99.90;;;;;;4933802;29;20281;-71
2022/06/21 10:27:42;;;;;;;3.57;2.50;;;14.90;99.90;;;;;;4933925;29;20249;-73
2022/06/21 10:30:30;;;;;;;3.57;2.30;;;15.60;99.90;;;;;;4933871;29;20203;-72
2022/06/21 10:33:04;;;;;;;3.10;1.97;;;16.00;99.90;;;;;;4917798;29;20238;-72
2022/06/21 10:36:12;;;;;;;4.63;2.10;;;16.30;99.90;;;;;;4917940;29;20195;-73
2022/06/21 10:39:16;;;;;;;3.97;2.00;;;16.70;99.90;;;;;;4895332;29;20571;-74
2022/06/21 10:45:33;;;;;;;5.07;2.07;;;17.80;99.90;;;;;;4893306;29;20254;-70
2022/06/21 10:48:03;;;;;;;4.40;1.80;;;16.70;99.90;;;;;;4880338;29;20204;-71
2022/06/21 10:51:05;;;;;;;3.47;2.03;;;17.10;99.90;;;;;;4903249;29;20206;-69
2022/06/21 10:53:48;;;;;;;4.50;1.83;;;17.30;99.90;;;;;;4945777;29;20201;-71
2022/06/21 11:02:56;;;;;;;5.17;2.33;;;16.40;99.90;;;;;;4935721;29;20257;-72
2022/06/21 11:05:54;;;;;;;2.50;1.90;;;17.10;99.90;;;;;;4941546;29;20254;-71
2022/06/21 11:08:52;;;;;;;3.23;1.60;;;17.30;99.90;;;;;;4917984;29;20226;-72
2022/06/21 11:11:25;;;;;;;3.23;2.00;;;18.00;99.90;;;;;;4933522;29;20239;-73
2022/06/21 11:14:18;;;;;;;3.70;1.50;;;19.30;99.90;;;;;;4917336;29;20241;-72
2022/06/21 11:16:57;;;;;;;5.17;1.93;;;19.30;99.90;;;;;;4972585;28;20212;-72
2022/06/21 11:19:42;;;;;;;4.67;1.90;;;19.60;99.90;;;;;;4997707;28;20195;-71
2022/06/21 11:22:28;;;;;;;2.43;1.70;;;19.60;99.90;;;;;;5015765;28;20192;-72
2022/06/21 11:25:01;;;;;;;4.03;1.70;;;19.10;99.90;;;;;;5008284;28;20192;-73
2022/06/21 11:27:39;;;;;;;2.87;1.77;;;18.80;99.90;;;;;;4984911;28;20200;-73
2022/06/21 11:30:17;;;;;;;3.83;1.87;;;18.00;99.90;;;;;;4997546;28;20279;-73
2022/06/21 11:32:53;;;;;;;5.53;2.10;;;17.30;99.90;;;;;;4994301;28;20207;-75
2022/06/21 11:35:57;;;;;;;4.03;1.73;;;15.90;99.90;;;;;;4994956;28;20619;-74
2022/06/21 11:38:42;;;;;;;5.20;2.00;;;15.00;99.90;;;;;;4992678;28;20215;-74
2022/06/21 11:44:22;;;;;;;5.00;2.30;;;15.00;99.90;;;;;;5012523;28;20715;-75
2022/06/21 11:46:56;;;;;;;2.60;1.87;;;15.50;99.90;;;;;;4995146;28;20204;-76
2022/06/21 11:49:26;;;;;;;3.07;1.87;;;16.40;99.90;;;;;;5013014;28;20282;-76
2022/06/21 11:52:20;;;;;;;3.63;1.83;;;16.70;99.90;;;;;;5021455;28;20248;-75
2022/06/21 11:55:17;;;;;;;2.93;1.50;;;17.30;99.90;;;;;;5008448;28;20192;-77
2022/06/21 11:58:02;;;;;;;2.57;1.70;;;17.10;99.90;;;;;;4918173;29;20254;-75
2022/06/21 12:00:55;;;;;;;3.73;2.13;;;17.10;99.90;;;;;;4932402;29;20190;-77
2022/06/21 12:03:46;;;;;;;2.80;1.40;;;17.20;99.90;;;;;;4927642;29;20230;-79
2022/06/21 12:06:18;;;;;;;6.23;1.83;;;16.60;99.90;;;;;;4935170;29;20207;-79
2022/06/21 12:09:09;;;;;;;4.33;1.67;;;16.20;99.90;;;;;;4933369;29;20268;-78
2022/06/21 12:12:02;;;;;;;2.40;1.30;;;15.90;99.90;;;;;;4926261;29;20230;-73
2022/06/21 12:14:53;;;;;;;6.03;2.47;;;15.70;99.90;;;;;;4926296;29;20195;-73
2022/06/21 12:17:45;;;;;;;5.57;1.77;;;15.70;99.90;;;;;;4926633;29;20794;-70
2022/06/21 12:20:18;;;;;;;4.77;1.57;;;15.50;99.90;;;;;;4935592;29;20234;-73
2022/06/21 12:23:14;;;;;;;4.43;1.70;;;15.50;99.90;;;;;;4901144;29;20239;-73
2022/06/21 12:25:42;;;;;;;3.70;1.77;;;15.70;99.90;;;;;;4901271;29;20206;-75
2022/06/21 12:28:14;;;;;;;6.50;1.67;;;15.80;99.90;;;;;;4901060;29;20650;-74
2022/06/21 12:31:01;;;;;;;4.67;1.90;;;15.90;99.90;;;;;;4934632;29;20739;-74
2022/06/21 12:33:33;;;;;;;5.80;1.50;;;16.00;99.90;;;;;;4917922;29;20202;-71
2022/06/21 12:36:01;;;;;;;3.03;1.20;;;16.00;99.90;;;;;;5002253;28;20198;-73
2022/06/21 12:38:42;;;;;;;4.03;1.60;;;14.80;99.90;;;;;;5017239;28;20329;-68
2022/06/21 12:41:51;;;;;;;2.27;1.10;;;14.10;99.90;;;;;;5017399;28;20203;-69
2022/06/21 12:45:03;;;;;;;2.73;1.00;;;13.60;99.90;;;;;;5017230;28;20192;-68
2022/06/21 12:47:39;;;;;;;2.83;1.13;;;13.20;99.90;;;;;;5017412;28;20215;-67
2022/06/21 12:50:30;;;;;;;2.43;1.30;;;13.20;99.90;;;;;;5017197;28;20227;-70
2022/06/21 12:53:32;;;;;;;2.93;1.33;;;13.30;99.90;;;;;;5034726;28;20189;-71
2022/06/21 12:56:05;;;;;;;3.63;1.30;;;13.30;99.90;;;;;;4976597;28;20581;-71
2022/06/21 12:59:16;;;;;;;2.83;1.10;;;13.30;99.90;;;;;;4977257;28;20225;-71
2022/06/21 13:02:02;;;;;;;3.67;1.40;;;13.60;99.90;;;;;;4973714;28;20212;-70
2022/06/21 13:04:56;;;;;;;4.30;1.30;;;14.40;99.90;;;;;;4957886;28;20384;-71
2022/06/21 13:07:48;;;;;;;2.87;1.00;;;15.10;99.90;;;;;;4957504;28;20288;-73
2022/06/21 13:10:28;;;;;;;2.70;1.20;;;15.80;99.90;;;;;;4956025;28;20199;-75
2022/06/21 13:13:15;;;;;;;1.83;1.10;;;16.40;99.90;;;;;;4977310;28;20327;-72
2022/06/21 13:15:51;;;;;;;1.40;0.90;;;16.80;99.90;;;;;;4975518;28;20240;-74
2022/06/21 13:18:27;;;;;;;3.63;1.10;;;17.60;99.90;;;;;;4957048;28;20248;-74
2022/06/21 13:21:02;;;;;;;3.00;1.10;;;18.30;99.90;;;;;;4973279;28;20233;-75
2022/06/21 13:23:51;;;;;;;2.67;1.00;;;18.70;99.90;;;;;;4957363;28;20201;-74
2022/06/21 13:26:46;;;;;;;4.53;0.90;;;18.70;99.90;;;;;;4957030;28;20296;-71
2022/06/21 13:30:04;;;;;;;5.40;0.90;;;18.90;99.90;;;;;;4972079;28;20213;-73
2022/06/21 13:32:49;;;;;;;1.33;0.80;;;18.40;99.90;;;;;;4920944;29;20205;-72
2022/06/21 13:35:32;;;;;;;2.17;0.90;;;18.60;99.90;;;;;;4936427;28;20203;-72
2022/06/21 13:38:13;;;;;;;2.80;1.10;;;18.30;99.90;;;;;;4932855;29;20222;-71
2022/06/21 13:40:55;;;;;;;2.87;1.00;;;17.60;99.90;;;;;;4937109;29;20202;-72
2022/06/21 13:43:30;;;;;;;2.00;1.10;;;17.60;99.90;;;;;;4952334;28;20205;-72
2022/06/21 13:46:17;;;;;;;1.50;0.80;;;17.80;99.90;;;;;;4937560;29;20205;-72
2022/06/21 13:48:49;;;;;;;2.43;0.93;;;17.90;99.90;;;;;;4955065;28;20675;-74
2022/06/21 13:51:24;;;;;;;1.40;0.90;;;18.00;99.90;;;;;;4936667;29;20297;-71
2022/06/21 13:53:57;;;;;;;1.37;0.70;;;18.30;99.90;;;;;;4937116;29;20758;-74
2022/06/21 13:57:15;;;;;;;1.10;0.83;;;17.90;99.90;;;;;;4953404;29;20206;-78
2022/06/21 13:59:45;;;;;;;1.33;0.90;;;17.60;99.90;;;;;;4896884;29;20612;-76
2022/06/21 14:02:29;;;;;;;2.37;0.80;;;17.80;99.90;;;;;;4895931;29;20212;-71
2022/06/21 14:05:05;;;;;;;1.63;0.80;;;18.10;99.90;;;;;;4913702;29;20199;-72
2022/06/21 14:07:45;;;;;;;1.93;0.60;;;18.30;99.90;;;;;;4892781;29;20202;-72
2022/06/21 14:10:24;;;;;;;2.53;0.80;;;18.40;99.90;;;;;;4930765;29;20638;-71
2022/06/21 14:13:19;;;;;;;1.47;0.90;;;18.60;99.90;;;;;;4928806;29;20292;-71
2022/06/21 14:16:05;;;;;;;2.60;1.50;;;18.50;99.90;;;;;;4936853;29;20198;-71